sensor_id;sensor_type;location;lat;lon;timestamp;P1;durP1;ratioP1;P2;durP2;ratioP2
29728;SDS011;20055;51.498;11.960;2024-02-04T00:01:55;9.35;;;6.05;;
29728;SDS011;20055;51.498;11.960;2024-02-04T00:04:21;11.10;;;6.10;;
29728;SDS011;20055;51.498;11.960;2024-02-04T00:06:49;8.75;;;6.15;;
29728;SDS011;20055;51.498;11.960;2024-02-04T00:09:15;11.60;;;7.22;;
29728;SDS011;20055;51.498;11.960;2024-02-04T00:11:41;12.43;;;6.57;;
29728;SDS011;20055;51.498;11.960;2024-02-04T00:14:07;9.60;;;6.20;;
29728;SDS011;20055;51.498;11.960;2024-02-04T00:16:34;11.52;;;7.57;;
29728;SDS011;20055;51.498;11.960;2024-02-04T00:19:00;14.07;;;7.45;;
29728;SDS011;20055;51.498;11.960;2024-02-04T00:21:26;12.95;;;7.55;;
29728;SDS011;20055;51.498;11.960;2024-02-04T00:23:53;13.77;;;8.07;;
29728;SDS011;20055;51.498;11.960;2024-02-04T00:26:19;12.32;;;7.85;;
29728;SDS011;20055;51.498;11.960;2024-02-04T00:28:45;12.45;;;8.20;;
29728;SDS011;20055;51.498;11.960;2024-02-04T00:31:11;12.40;;;7.72;;
29728;SDS011;20055;51.498;11.960;2024-02-04T00:33:37;14.50;;;8.38;;
29728;SDS011;20055;51.498;11.960;2024-02-04T00:36:04;14.40;;;8.55;;
29728;SDS011;20055;51.498;11.960;2024-02-04T00:38:30;14.38;;;8.98;;
29728;SDS011;20055;51.498;11.960;2024-02-04T00:40:56;12.35;;;7.78;;
29728;SDS011;20055;51.498;11.960;2024-02-04T00:43:23;15.00;;;8.68;;
29728;SDS011;20055;51.498;11.960;2024-02-04T00:45:49;12.52;;;7.07;;
29728;SDS011;20055;51.498;11.960;2024-02-04T00:48:15;15.32;;;7.18;;
29728;SDS011;20055;51.498;11.960;2024-02-04T00:50:41;13.63;;;7.40;;
29728;SDS011;20055;51.498;11.960;2024-02-04T00:53:08;11.90;;;7.60;;
29728;SDS011;20055;51.498;11.960;2024-02-04T00:55:34;12.82;;;6.72;;
29728;SDS011;20055;51.498;11.960;2024-02-04T00:58:00;14.70;;;7.20;;
29728;SDS011;20055;51.498;11.960;2024-02-04T01:00:28;13.05;;;7.68;;
29728;SDS011;20055;51.498;11.960;2024-02-04T01:02:54;10.65;;;6.85;;
29728;SDS011;20055;51.498;11.960;2024-02-04T01:05:20;10.75;;;7.47;;
29728;SDS011;20055;51.498;11.960;2024-02-04T01:07:46;11.20;;;6.70;;
29728;SDS011;20055;51.498;11.960;2024-02-04T01:10:13;11.85;;;6.97;;
29728;SDS011;20055;51.498;11.960;2024-02-04T01:12:39;17.38;;;6.80;;
29728;SDS011;20055;51.498;11.960;2024-02-04T01:15:06;13.52;;;7.50;;
29728;SDS011;20055;51.498;11.960;2024-02-04T01:17:32;14.88;;;7.40;;
29728;SDS011;20055;51.498;11.960;2024-02-04T01:19:59;16.10;;;7.97;;
29728;SDS011;20055;51.498;11.960;2024-02-04T01:22:26;15.27;;;8.48;;
29728;SDS011;20055;51.498;11.960;2024-02-04T01:24:53;13.65;;;8.10;;
29728;SDS011;20055;51.498;11.960;2024-02-04T01:27:19;16.17;;;7.47;;
29728;SDS011;20055;51.498;11.960;2024-02-04T01:29:45;14.60;;;8.10;;
29728;SDS011;20055;51.498;11.960;2024-02-04T01:32:11;15.35;;;8.45;;
29728;SDS011;20055;51.498;11.960;2024-02-04T01:34:38;14.52;;;8.88;;
29728;SDS011;20055;51.498;11.960;2024-02-04T01:37:04;19.33;;;9.15;;
29728;SDS011;20055;51.498;11.960;2024-02-04T01:39:30;16.45;;;9.02;;
29728;SDS011;20055;51.498;11.960;2024-02-04T01:41:56;14.75;;;8.02;;
29728;SDS011;20055;51.498;11.960;2024-02-04T01:44:23;16.13;;;8.55;;
29728;SDS011;20055;51.498;11.960;2024-02-04T01:46:49;19.02;;;8.30;;
29728;SDS011;20055;51.498;11.960;2024-02-04T01:49:16;16.45;;;8.95;;
29728;SDS011;20055;51.498;11.960;2024-02-04T01:51:42;15.18;;;8.27;;
29728;SDS011;20055;51.498;11.960;2024-02-04T01:54:08;17.27;;;8.95;;
29728;SDS011;20055;51.498;11.960;2024-02-04T01:56:35;17.15;;;9.45;;
29728;SDS011;20055;51.498;11.960;2024-02-04T01:59:02;18.58;;;9.85;;
29728;SDS011;20055;51.498;11.960;2024-02-04T02:01:29;13.63;;;8.93;;
29728;SDS011;20055;51.498;11.960;2024-02-04T02:03:55;18.48;;;8.90;;
29728;SDS011;20055;51.498;11.960;2024-02-04T02:06:22;16.88;;;9.32;;
29728;SDS011;20055;51.498;11.960;2024-02-04T02:08:49;18.33;;;9.43;;
29728;SDS011;20055;51.498;11.960;2024-02-04T02:11:18;26.25;;;10.32;;
29728;SDS011;20055;51.498;11.960;2024-02-04T02:13:53;18.67;;;9.90;;
29728;SDS011;20055;51.498;11.960;2024-02-04T02:16:26;17.55;;;9.38;;
29728;SDS011;20055;51.498;11.960;2024-02-04T02:19:00;22.17;;;9.98;;
29728;SDS011;20055;51.498;11.960;2024-02-04T02:26:51;25.85;;;11.70;;
29728;SDS011;20055;51.498;11.960;2024-02-04T02:29:18;22.65;;;11.70;;
29728;SDS011;20055;51.498;11.960;2024-02-04T02:31:45;22.02;;;11.05;;
29728;SDS011;20055;51.498;11.960;2024-02-04T02:34:11;20.15;;;11.20;;
29728;SDS011;20055;51.498;11.960;2024-02-04T02:36:43;20.67;;;11.55;;
29728;SDS011;20055;51.498;11.960;2024-02-04T02:39:13;20.13;;;10.57;;
29728;SDS011;20055;51.498;11.960;2024-02-04T02:41:44;20.05;;;10.07;;
29728;SDS011;20055;51.498;11.960;2024-02-04T02:44:15;21.67;;;11.13;;
29728;SDS011;20055;51.498;11.960;2024-02-04T02:46:42;25.88;;;12.10;;
29728;SDS011;20055;51.498;11.960;2024-02-04T02:49:11;17.13;;;9.95;;
29728;SDS011;20055;51.498;11.960;2024-02-04T02:51:37;23.33;;;10.52;;
29728;SDS011;20055;51.498;11.960;2024-02-04T02:54:04;17.70;;;10.02;;
29728;SDS011;20055;51.498;11.960;2024-02-04T02:56:30;17.95;;;9.68;;
29728;SDS011;20055;51.498;11.960;2024-02-04T02:58:56;24.05;;;9.93;;
29728;SDS011;20055;51.498;11.960;2024-02-04T03:01:22;23.08;;;9.88;;
29728;SDS011;20055;51.498;11.960;2024-02-04T03:03:49;17.58;;;10.07;;
29728;SDS011;20055;51.498;11.960;2024-02-04T03:06:16;22.70;;;10.68;;
29728;SDS011;20055;51.498;11.960;2024-02-04T03:08:42;20.83;;;9.77;;
29728;SDS011;20055;51.498;11.960;2024-02-04T03:11:08;16.92;;;9.80;;
29728;SDS011;20055;51.498;11.960;2024-02-04T03:13:37;22.63;;;10.85;;
29728;SDS011;20055;51.498;11.960;2024-02-04T03:16:09;16.73;;;9.63;;
29728;SDS011;20055;51.498;11.960;2024-02-04T03:18:40;17.27;;;9.18;;
29728;SDS011;20055;51.498;11.960;2024-02-04T03:23:37;18.52;;;9.15;;
29728;SDS011;20055;51.498;11.960;2024-02-04T03:26:03;16.60;;;8.00;;
29728;SDS011;20055;51.498;11.960;2024-02-04T03:28:30;14.80;;;9.57;;
29728;SDS011;20055;51.498;11.960;2024-02-04T03:30:56;14.52;;;8.48;;
29728;SDS011;20055;51.498;11.960;2024-02-04T03:33:22;16.00;;;8.77;;
29728;SDS011;20055;51.498;11.960;2024-02-04T03:35:49;16.33;;;9.60;;
29728;SDS011;20055;51.498;11.960;2024-02-04T03:38:15;16.52;;;9.48;;
29728;SDS011;20055;51.498;11.960;2024-02-04T03:40:41;14.82;;;7.88;;
29728;SDS011;20055;51.498;11.960;2024-02-04T03:43:09;16.85;;;8.60;;
29728;SDS011;20055;51.498;11.960;2024-02-04T03:45:35;16.42;;;8.30;;
29728;SDS011;20055;51.498;11.960;2024-02-04T03:48:02;18.27;;;8.63;;
29728;SDS011;20055;51.498;11.960;2024-02-04T03:50:29;16.52;;;8.60;;
29728;SDS011;20055;51.498;11.960;2024-02-04T03:52:55;17.92;;;8.25;;
29728;SDS011;20055;51.498;11.960;2024-02-04T03:55:23;14.50;;;7.65;;
29728;SDS011;20055;51.498;11.960;2024-02-04T03:57:49;20.00;;;8.63;;
29728;SDS011;20055;51.498;11.960;2024-02-04T04:00:15;16.00;;;8.20;;
29728;SDS011;20055;51.498;11.960;2024-02-04T04:02:42;15.57;;;7.75;;
29728;SDS011;20055;51.498;11.960;2024-02-04T04:05:11;13.50;;;7.60;;
29728;SDS011;20055;51.498;11.960;2024-02-04T04:07:38;13.43;;;8.00;;
29728;SDS011;20055;51.498;11.960;2024-02-04T04:10:05;12.68;;;8.00;;
29728;SDS011;20055;51.498;11.960;2024-02-04T04:12:32;13.05;;;7.40;;
29728;SDS011;20055;51.498;11.960;2024-02-04T04:14:58;12.73;;;8.18;;
29728;SDS011;20055;51.498;11.960;2024-02-04T04:17:24;13.80;;;8.13;;
29728;SDS011;20055;51.498;11.960;2024-02-04T04:19:51;15.55;;;7.80;;
29728;SDS011;20055;51.498;11.960;2024-02-04T04:22:17;11.40;;;6.68;;
29728;SDS011;20055;51.498;11.960;2024-02-04T04:24:44;12.10;;;7.05;;
29728;SDS011;20055;51.498;11.960;2024-02-04T04:27:10;11.98;;;6.75;;
29728;SDS011;20055;51.498;11.960;2024-02-04T04:29:36;14.88;;;7.50;;
29728;SDS011;20055;51.498;11.960;2024-02-04T04:32:02;14.57;;;7.43;;
29728;SDS011;20055;51.498;11.960;2024-02-04T04:34:29;11.98;;;7.22;;
29728;SDS011;20055;51.498;11.960;2024-02-04T04:36:55;12.10;;;6.40;;
29728;SDS011;20055;51.498;11.960;2024-02-04T04:39:21;14.20;;;7.50;;
29728;SDS011;20055;51.498;11.960;2024-02-04T04:41:47;14.98;;;7.43;;
29728;SDS011;20055;51.498;11.960;2024-02-04T04:44:13;12.02;;;7.00;;
29728;SDS011;20055;51.498;11.960;2024-02-04T04:46:40;11.32;;;6.78;;
29728;SDS011;20055;51.498;11.960;2024-02-04T04:49:07;12.02;;;6.90;;
29728;SDS011;20055;51.498;11.960;2024-02-04T04:51:33;14.32;;;7.82;;
29728;SDS011;20055;51.498;11.960;2024-02-04T04:53:59;13.63;;;7.00;;
29728;SDS011;20055;51.498;11.960;2024-02-04T04:56:25;15.98;;;7.15;;
29728;SDS011;20055;51.498;11.960;2024-02-04T04:58:51;15.00;;;7.45;;
29728;SDS011;20055;51.498;11.960;2024-02-04T05:01:18;13.00;;;7.80;;
29728;SDS011;20055;51.498;11.960;2024-02-04T05:03:44;13.73;;;7.60;;
29728;SDS011;20055;51.498;11.960;2024-02-04T05:06:11;14.25;;;7.13;;
29728;SDS011;20055;51.498;11.960;2024-02-04T05:08:37;15.27;;;7.43;;
29728;SDS011;20055;51.498;11.960;2024-02-04T05:11:03;12.82;;;6.93;;
29728;SDS011;20055;51.498;11.960;2024-02-04T05:13:30;14.73;;;7.57;;
29728;SDS011;20055;51.498;11.960;2024-02-04T05:15:56;15.02;;;7.32;;
29728;SDS011;20055;51.498;11.960;2024-02-04T05:18:22;15.40;;;8.05;;
29728;SDS011;20055;51.498;11.960;2024-02-04T05:20:52;12.82;;;7.85;;
29728;SDS011;20055;51.498;11.960;2024-02-04T05:23:18;13.70;;;8.00;;
29728;SDS011;20055;51.498;11.960;2024-02-04T05:25:44;15.98;;;8.00;;
29728;SDS011;20055;51.498;11.960;2024-02-04T05:28:11;14.38;;;7.40;;
29728;SDS011;20055;51.498;11.960;2024-02-04T05:30:37;12.60;;;7.85;;
29728;SDS011;20055;51.498;11.960;2024-02-04T05:33:04;13.52;;;7.35;;
29728;SDS011;20055;51.498;11.960;2024-02-04T05:35:30;15.07;;;8.05;;
29728;SDS011;20055;51.498;11.960;2024-02-04T05:37:56;13.75;;;8.10;;
29728;SDS011;20055;51.498;11.960;2024-02-04T05:40:22;12.82;;;7.35;;
29728;SDS011;20055;51.498;11.960;2024-02-04T05:42:48;14.82;;;8.30;;
29728;SDS011;20055;51.498;11.960;2024-02-04T05:45:15;11.55;;;7.43;;
29728;SDS011;20055;51.498;11.960;2024-02-04T05:47:41;12.63;;;6.60;;
29728;SDS011;20055;51.498;11.960;2024-02-04T05:50:07;11.90;;;7.07;;
29728;SDS011;20055;51.498;11.960;2024-02-04T05:52:34;12.65;;;6.40;;
29728;SDS011;20055;51.498;11.960;2024-02-04T05:55:00;12.43;;;6.95;;
29728;SDS011;20055;51.498;11.960;2024-02-04T05:57:26;12.50;;;6.55;;
29728;SDS011;20055;51.498;11.960;2024-02-04T05:59:52;11.55;;;6.30;;
29728;SDS011;20055;51.498;11.960;2024-02-04T06:02:19;12.00;;;6.78;;
29728;SDS011;20055;51.498;11.960;2024-02-04T06:04:45;16.02;;;6.97;;
29728;SDS011;20055;51.498;11.960;2024-02-04T06:07:12;10.57;;;6.03;;
29728;SDS011;20055;51.498;11.960;2024-02-04T06:09:38;10.75;;;7.28;;
29728;SDS011;20055;51.498;11.960;2024-02-04T06:12:05;10.35;;;6.47;;
29728;SDS011;20055;51.498;11.960;2024-02-04T06:14:33;12.27;;;6.78;;
29728;SDS011;20055;51.498;11.960;2024-02-04T06:17:00;14.30;;;7.53;;
29728;SDS011;20055;51.498;11.960;2024-02-04T06:19:26;10.00;;;6.53;;
29728;SDS011;20055;51.498;11.960;2024-02-04T06:21:53;12.55;;;7.45;;
29728;SDS011;20055;51.498;11.960;2024-02-04T06:24:19;11.05;;;6.95;;
29728;SDS011;20055;51.498;11.960;2024-02-04T06:26:45;12.13;;;6.07;;
29728;SDS011;20055;51.498;11.960;2024-02-04T06:29:12;9.35;;;5.97;;
29728;SDS011;20055;51.498;11.960;2024-02-04T06:31:38;10.95;;;6.00;;
29728;SDS011;20055;51.498;11.960;2024-02-04T06:34:04;9.90;;;5.93;;
29728;SDS011;20055;51.498;11.960;2024-02-04T06:36:30;8.32;;;5.45;;
29728;SDS011;20055;51.498;11.960;2024-02-04T06:38:57;6.65;;;5.13;;
29728;SDS011;20055;51.498;11.960;2024-02-04T06:41:23;7.90;;;4.47;;
29728;SDS011;20055;51.498;11.960;2024-02-04T06:43:49;5.65;;;4.00;;
29728;SDS011;20055;51.498;11.960;2024-02-04T06:46:23;6.03;;;4.30;;
29728;SDS011;20055;51.498;11.960;2024-02-04T06:48:50;5.53;;;3.35;;
29728;SDS011;20055;51.498;11.960;2024-02-04T06:51:16;5.43;;;3.40;;
29728;SDS011;20055;51.498;11.960;2024-02-04T06:53:43;4.20;;;3.17;;
29728;SDS011;20055;51.498;11.960;2024-02-04T06:56:09;7.10;;;3.42;;
29728;SDS011;20055;51.498;11.960;2024-02-04T06:58:38;8.05;;;3.42;;
29728;SDS011;20055;51.498;11.960;2024-02-04T07:01:05;4.47;;;3.22;;
29728;SDS011;20055;51.498;11.960;2024-02-04T07:03:31;4.80;;;3.60;;
29728;SDS011;20055;51.498;11.960;2024-02-04T07:05:58;6.95;;;3.22;;
29728;SDS011;20055;51.498;11.960;2024-02-04T07:08:25;3.92;;;3.10;;
29728;SDS011;20055;51.498;11.960;2024-02-04T07:10:51;4.10;;;2.63;;
29728;SDS011;20055;51.498;11.960;2024-02-04T07:13:17;3.67;;;2.58;;
29728;SDS011;20055;51.498;11.960;2024-02-04T07:15:44;4.80;;;2.42;;
29728;SDS011;20055;51.498;11.960;2024-02-04T07:18:10;5.43;;;2.80;;
29728;SDS011;20055;51.498;11.960;2024-02-04T07:20:37;3.25;;;2.60;;
29728;SDS011;20055;51.498;11.960;2024-02-04T07:23:04;3.83;;;2.53;;
29728;SDS011;20055;51.498;11.960;2024-02-04T07:25:30;4.07;;;2.50;;
29728;SDS011;20055;51.498;11.960;2024-02-04T07:27:59;4.40;;;3.15;;
29728;SDS011;20055;51.498;11.960;2024-02-04T07:30:25;3.60;;;2.72;;
29728;SDS011;20055;51.498;11.960;2024-02-04T07:32:51;5.70;;;2.72;;
29728;SDS011;20055;51.498;11.960;2024-02-04T07:35:18;4.43;;;2.92;;
29728;SDS011;20055;51.498;11.960;2024-02-04T07:37:44;4.43;;;2.80;;
29728;SDS011;20055;51.498;11.960;2024-02-04T07:40:11;4.30;;;2.65;;
29728;SDS011;20055;51.498;11.960;2024-02-04T07:42:37;3.78;;;3.03;;
29728;SDS011;20055;51.498;11.960;2024-02-04T07:45:03;4.68;;;3.60;;
29728;SDS011;20055;51.498;11.960;2024-02-04T07:47:34;6.00;;;4.28;;
29728;SDS011;20055;51.498;11.960;2024-02-04T07:50:01;8.00;;;3.85;;
29728;SDS011;20055;51.498;11.960;2024-02-04T07:52:28;6.55;;;3.00;;
29728;SDS011;20055;51.498;11.960;2024-02-04T07:54:54;4.00;;;2.90;;
29728;SDS011;20055;51.498;11.960;2024-02-04T07:57:21;4.72;;;3.25;;
29728;SDS011;20055;51.498;11.960;2024-02-04T07:59:47;4.22;;;2.90;;
29728;SDS011;20055;51.498;11.960;2024-02-04T08:02:13;3.95;;;2.50;;
29728;SDS011;20055;51.498;11.960;2024-02-04T08:04:40;7.78;;;2.67;;
29728;SDS011;20055;51.498;11.960;2024-02-04T08:07:07;3.40;;;2.03;;
29728;SDS011;20055;51.498;11.960;2024-02-04T08:09:33;2.35;;;1.73;;
29728;SDS011;20055;51.498;11.960;2024-02-04T08:11:59;3.00;;;1.90;;
29728;SDS011;20055;51.498;11.960;2024-02-04T08:14:25;3.15;;;1.90;;
29728;SDS011;20055;51.498;11.960;2024-02-04T08:16:52;1.98;;;1.70;;
29728;SDS011;20055;51.498;11.960;2024-02-04T08:19:18;2.67;;;1.60;;
29728;SDS011;20055;51.498;11.960;2024-02-04T08:21:44;1.92;;;1.38;;
29728;SDS011;20055;51.498;11.960;2024-02-04T08:24:11;4.57;;;1.42;;
29728;SDS011;20055;51.498;11.960;2024-02-04T08:26:37;1.33;;;1.23;;
29728;SDS011;20055;51.498;11.960;2024-02-04T08:29:03;4.93;;;1.73;;
29728;SDS011;20055;51.498;11.960;2024-02-04T08:31:32;4.72;;;1.50;;
29728;SDS011;20055;51.498;11.960;2024-02-04T08:34:01;3.15;;;1.67;;
29728;SDS011;20055;51.498;11.960;2024-02-04T08:36:28;3.58;;;1.60;;
29728;SDS011;20055;51.498;11.960;2024-02-04T08:38:56;2.88;;;1.90;;
29728;SDS011;20055;51.498;11.960;2024-02-04T08:41:22;4.03;;;2.10;;
29728;SDS011;20055;51.498;11.960;2024-02-04T08:43:48;2.45;;;1.55;;
29728;SDS011;20055;51.498;11.960;2024-02-04T08:46:15;3.28;;;1.92;;
29728;SDS011;20055;51.498;11.960;2024-02-04T08:48:41;3.70;;;2.03;;
29728;SDS011;20055;51.498;11.960;2024-02-04T08:51:11;5.18;;;2.22;;
29728;SDS011;20055;51.498;11.960;2024-02-04T08:53:42;5.28;;;1.90;;
29728;SDS011;20055;51.498;11.960;2024-02-04T08:56:08;3.95;;;2.65;;
29728;SDS011;20055;51.498;11.960;2024-02-04T08:58:35;3.80;;;2.15;;
29728;SDS011;20055;51.498;11.960;2024-02-04T09:01:03;3.72;;;2.20;;
29728;SDS011;20055;51.498;11.960;2024-02-04T09:03:30;4.13;;;2.70;;
29728;SDS011;20055;51.498;11.960;2024-02-04T09:05:57;2.67;;;2.00;;
29728;SDS011;20055;51.498;11.960;2024-02-04T09:08:23;4.38;;;2.60;;
29728;SDS011;20055;51.498;11.960;2024-02-04T09:10:50;4.15;;;2.78;;
29728;SDS011;20055;51.498;11.960;2024-02-04T09:13:16;4.45;;;2.60;;
29728;SDS011;20055;51.498;11.960;2024-02-04T09:15:43;4.07;;;2.40;;
29728;SDS011;20055;51.498;11.960;2024-02-04T09:18:09;4.80;;;2.60;;
29728;SDS011;20055;51.498;11.960;2024-02-04T09:20:35;3.45;;;2.70;;
29728;SDS011;20055;51.498;11.960;2024-02-04T09:23:01;3.60;;;2.40;;
29728;SDS011;20055;51.498;11.960;2024-02-04T09:25:29;4.25;;;2.22;;
29728;SDS011;20055;51.498;11.960;2024-02-04T09:27:55;6.50;;;2.20;;
29728;SDS011;20055;51.498;11.960;2024-02-04T09:30:22;3.15;;;2.38;;
29728;SDS011;20055;51.498;11.960;2024-02-04T09:32:48;3.90;;;2.60;;
29728;SDS011;20055;51.498;11.960;2024-02-04T09:35:14;3.50;;;2.78;;
29728;SDS011;20055;51.498;11.960;2024-02-04T09:37:41;4.88;;;3.58;;
29728;SDS011;20055;51.498;11.960;2024-02-04T09:40:08;7.85;;;3.15;;
29728;SDS011;20055;51.498;11.960;2024-02-04T09:42:34;4.03;;;2.63;;
29728;SDS011;20055;51.498;11.960;2024-02-04T09:45:01;4.63;;;2.47;;
29728;SDS011;20055;51.498;11.960;2024-02-04T09:47:27;4.03;;;2.90;;
29728;SDS011;20055;51.498;11.960;2024-02-04T09:49:55;5.20;;;2.63;;
29728;SDS011;20055;51.498;11.960;2024-02-04T09:52:23;4.95;;;2.67;;
29728;SDS011;20055;51.498;11.960;2024-02-04T09:55:01;5.88;;;2.63;;
29728;SDS011;20055;51.498;11.960;2024-02-04T09:57:29;3.55;;;2.60;;
29728;SDS011;20055;51.498;11.960;2024-02-04T09:59:58;4.67;;;3.23;;
29728;SDS011;20055;51.498;11.960;2024-02-04T10:02:25;4.32;;;3.00;;
29728;SDS011;20055;51.498;11.960;2024-02-04T10:04:52;4.85;;;2.78;;
29728;SDS011;20055;51.498;11.960;2024-02-04T10:07:18;6.75;;;2.95;;
29728;SDS011;20055;51.498;11.960;2024-02-04T10:09:44;5.38;;;3.17;;
29728;SDS011;20055;51.498;11.960;2024-02-04T10:12:10;6.35;;;3.15;;
29728;SDS011;20055;51.498;11.960;2024-02-04T10:14:37;6.13;;;3.90;;
29728;SDS011;20055;51.498;11.960;2024-02-04T10:17:03;4.63;;;2.40;;
29728;SDS011;20055;51.498;11.960;2024-02-04T10:19:30;3.83;;;2.60;;
29728;SDS011;20055;51.498;11.960;2024-02-04T10:21:59;6.65;;;3.05;;
29728;SDS011;20055;51.498;11.960;2024-02-04T10:24:26;4.53;;;2.97;;
29728;SDS011;20055;51.498;11.960;2024-02-04T10:26:56;9.63;;;3.50;;
29728;SDS011;20055;51.498;11.960;2024-02-04T10:29:23;3.95;;;2.97;;
29728;SDS011;20055;51.498;11.960;2024-02-04T10:31:56;5.97;;;3.42;;
29728;SDS011;20055;51.498;11.960;2024-02-04T10:34:23;7.22;;;3.20;;
29728;SDS011;20055;51.498;11.960;2024-02-04T10:36:52;14.73;;;4.45;;
29728;SDS011;20055;51.498;11.960;2024-02-04T10:39:19;9.18;;;3.72;;
29728;SDS011;20055;51.498;11.960;2024-02-04T10:41:49;5.25;;;3.50;;
29728;SDS011;20055;51.498;11.960;2024-02-04T10:44:23;7.60;;;3.72;;
29728;SDS011;20055;51.498;11.960;2024-02-04T10:46:50;6.57;;;3.67;;
29728;SDS011;20055;51.498;11.960;2024-02-04T10:49:17;5.60;;;3.92;;
29728;SDS011;20055;51.498;11.960;2024-02-04T10:51:45;7.82;;;4.40;;
29728;SDS011;20055;51.498;11.960;2024-02-04T10:54:14;8.30;;;4.32;;
29728;SDS011;20055;51.498;11.960;2024-02-04T10:56:42;7.20;;;5.10;;
29728;SDS011;20055;51.498;11.960;2024-02-04T10:59:14;9.32;;;4.53;;
29728;SDS011;20055;51.498;11.960;2024-02-04T11:01:43;6.57;;;4.22;;
29728;SDS011;20055;51.498;11.960;2024-02-04T11:04:13;7.15;;;4.97;;
29728;SDS011;20055;51.498;11.960;2024-02-04T11:06:41;7.97;;;4.80;;
29728;SDS011;20055;51.498;11.960;2024-02-04T11:09:08;5.78;;;4.20;;
29728;SDS011;20055;51.498;11.960;2024-02-04T11:11:38;7.05;;;4.65;;
29728;SDS011;20055;51.498;11.960;2024-02-04T11:14:06;6.88;;;4.60;;
29728;SDS011;20055;51.498;11.960;2024-02-04T11:27:17;8.10;;;4.43;;
29728;SDS011;20055;51.498;11.960;2024-02-04T11:29:44;8.18;;;4.28;;
29728;SDS011;20055;51.498;11.960;2024-02-04T11:32:11;5.72;;;4.25;;
29728;SDS011;20055;51.498;11.960;2024-02-04T11:34:38;5.78;;;4.13;;
29728;SDS011;20055;51.498;11.960;2024-02-04T11:37:16;6.30;;;3.65;;
29728;SDS011;20055;51.498;11.960;2024-02-04T11:39:53;6.78;;;3.78;;
29728;SDS011;20055;51.498;11.960;2024-02-04T11:42:22;5.63;;;3.95;;
29728;SDS011;20055;51.498;11.960;2024-02-04T11:44:49;4.72;;;3.55;;
29728;SDS011;20055;51.498;11.960;2024-02-04T11:47:25;8.32;;;4.10;;
29728;SDS011;20055;51.498;11.960;2024-02-04T11:49:55;4.68;;;3.83;;
29728;SDS011;20055;51.498;11.960;2024-02-04T11:52:27;5.72;;;3.72;;
29728;SDS011;20055;51.498;11.960;2024-02-04T11:54:54;5.88;;;3.80;;
29728;SDS011;20055;51.498;11.960;2024-02-04T11:57:20;5.57;;;4.63;;
29728;SDS011;20055;51.498;11.960;2024-02-04T11:59:48;6.63;;;4.40;;
29728;SDS011;20055;51.498;11.960;2024-02-04T12:02:16;8.35;;;4.40;;
29728;SDS011;20055;51.498;11.960;2024-02-04T12:04:44;9.43;;;4.72;;
29728;SDS011;20055;51.498;11.960;2024-02-04T12:07:10;7.43;;;4.55;;
29728;SDS011;20055;51.498;11.960;2024-02-04T12:09:38;8.15;;;4.18;;
29728;SDS011;20055;51.498;11.960;2024-02-04T12:12:06;9.07;;;4.63;;
29728;SDS011;20055;51.498;11.960;2024-02-04T12:14:34;7.45;;;3.72;;
29728;SDS011;20055;51.498;11.960;2024-02-04T12:17:09;7.85;;;3.83;;
29728;SDS011;20055;51.498;11.960;2024-02-04T12:19:36;16.58;;;9.43;;
29728;SDS011;20055;51.498;11.960;2024-02-04T12:24:36;53.90;;;13.65;;
29728;SDS011;20055;51.498;11.960;2024-02-04T12:27:04;14.32;;;6.03;;
29728;SDS011;20055;51.498;11.960;2024-02-04T12:29:31;10.27;;;3.00;;
29728;SDS011;20055;51.498;11.960;2024-02-04T12:31:58;6.22;;;3.75;;
29728;SDS011;20055;51.498;11.960;2024-02-04T12:34:25;8.32;;;3.50;;
29728;SDS011;20055;51.498;11.960;2024-02-04T12:36:58;5.28;;;2.53;;
29728;SDS011;20055;51.498;11.960;2024-02-04T12:39:26;9.57;;;3.92;;
29728;SDS011;20055;51.498;11.960;2024-02-04T12:41:52;4.55;;;1.80;;
29728;SDS011;20055;51.498;11.960;2024-02-04T12:44:19;5.40;;;2.15;;
29728;SDS011;20055;51.498;11.960;2024-02-04T12:46:49;2.42;;;1.52;;
29728;SDS011;20055;51.498;11.960;2024-02-04T12:49:19;4.53;;;1.80;;
29728;SDS011;20055;51.498;11.960;2024-02-04T12:51:50;3.70;;;2.08;;
29728;SDS011;20055;51.498;11.960;2024-02-04T12:54:18;1.77;;;1.20;;
29728;SDS011;20055;51.498;11.960;2024-02-04T12:59:24;6.13;;;2.10;;
29728;SDS011;20055;51.498;11.960;2024-02-04T13:01:56;7.93;;;3.60;;
29728;SDS011;20055;51.498;11.960;2024-02-04T13:04:26;3.88;;;2.10;;
29728;SDS011;20055;51.498;11.960;2024-02-04T13:06:58;5.38;;;2.28;;
29728;SDS011;20055;51.498;11.960;2024-02-04T13:09:25;3.38;;;1.42;;
29728;SDS011;20055;51.498;11.960;2024-02-04T13:11:51;3.22;;;1.67;;
29728;SDS011;20055;51.498;11.960;2024-02-04T13:14:17;2.47;;;1.38;;
29728;SDS011;20055;51.498;11.960;2024-02-04T13:16:44;2.15;;;1.73;;
29728;SDS011;20055;51.498;11.960;2024-02-04T13:19:10;4.20;;;1.48;;
29728;SDS011;20055;51.498;11.960;2024-02-04T13:21:36;3.35;;;1.70;;
29728;SDS011;20055;51.498;11.960;2024-02-04T13:24:03;3.67;;;1.23;;
29728;SDS011;20055;51.498;11.960;2024-02-04T13:26:29;8.30;;;1.92;;
29728;SDS011;20055;51.498;11.960;2024-02-04T13:28:55;1.95;;;0.82;;
29728;SDS011;20055;51.498;11.960;2024-02-04T13:31:21;3.47;;;1.67;;
29728;SDS011;20055;51.498;11.960;2024-02-04T13:33:48;5.10;;;2.20;;
29728;SDS011;20055;51.498;11.960;2024-02-04T13:36:14;5.10;;;1.60;;
29728;SDS011;20055;51.498;11.960;2024-02-04T13:38:40;1.75;;;1.13;;
29728;SDS011;20055;51.498;11.960;2024-02-04T13:41:06;8.18;;;1.42;;
29728;SDS011;20055;51.498;11.960;2024-02-04T13:43:33;2.22;;;1.25;;
29728;SDS011;20055;51.498;11.960;2024-02-04T13:46:00;3.38;;;1.27;;
29728;SDS011;20055;51.498;11.960;2024-02-04T13:48:27;2.00;;;1.33;;
29728;SDS011;20055;51.498;11.960;2024-02-04T13:50:53;2.00;;;1.15;;
29728;SDS011;20055;51.498;11.960;2024-02-04T13:53:20;4.13;;;1.48;;
29728;SDS011;20055;51.498;11.960;2024-02-04T13:55:47;2.47;;;1.10;;
29728;SDS011;20055;51.498;11.960;2024-02-04T13:58:14;3.20;;;1.52;;
29728;SDS011;20055;51.498;11.960;2024-02-04T14:00:41;3.33;;;1.90;;
29728;SDS011;20055;51.498;11.960;2024-02-04T14:03:07;1.95;;;1.20;;
29728;SDS011;20055;51.498;11.960;2024-02-04T14:05:34;4.18;;;1.25;;
29728;SDS011;20055;51.498;11.960;2024-02-04T14:08:00;5.82;;;1.80;;
29728;SDS011;20055;51.498;11.960;2024-02-04T14:10:26;6.38;;;2.13;;
29728;SDS011;20055;51.498;11.960;2024-02-04T14:12:52;4.35;;;1.98;;
29728;SDS011;20055;51.498;11.960;2024-02-04T14:15:19;4.57;;;2.28;;
29728;SDS011;20055;51.498;11.960;2024-02-04T14:17:45;11.80;;;5.43;;
29728;SDS011;20055;51.498;11.960;2024-02-04T14:20:11;9.60;;;3.95;;
29728;SDS011;20055;51.498;11.960;2024-02-04T14:22:39;6.75;;;2.22;;
29728;SDS011;20055;51.498;11.960;2024-02-04T14:25:05;3.35;;;1.45;;
29728;SDS011;20055;51.498;11.960;2024-02-04T14:27:32;4.50;;;1.48;;
29728;SDS011;20055;51.498;11.960;2024-02-04T14:29:58;8.68;;;1.50;;
29728;SDS011;20055;51.498;11.960;2024-02-04T14:32:24;4.60;;;1.08;;
29728;SDS011;20055;51.498;11.960;2024-02-04T14:34:51;2.05;;;1.27;;
29728;SDS011;20055;51.498;11.960;2024-02-04T14:37:19;5.75;;;1.10;;
29728;SDS011;20055;51.498;11.960;2024-02-04T14:39:45;3.53;;;1.48;;
29728;SDS011;20055;51.498;11.960;2024-02-04T14:42:12;13.15;;;1.50;;
29728;SDS011;20055;51.498;11.960;2024-02-04T14:44:38;2.72;;;1.60;;
29728;SDS011;20055;51.498;11.960;2024-02-04T14:47:04;4.60;;;1.55;;
29728;SDS011;20055;51.498;11.960;2024-02-04T14:49:31;1.30;;;1.20;;
29728;SDS011;20055;51.498;11.960;2024-02-04T14:51:57;6.00;;;2.10;;